Últimos artigos:
Falta de som no Morse Runner em Linux?
Touchpad tapping, em Debian Buster (10)
Acender um LED com a tensão da rede eléctrica
Programação do Yaesu FT-60 para os EasySats
AO-91 (RadFxSat Fox-1B) está no Ar!
CT7AFR DIY CW-Keyer
Últimas fotos:
Últimos METARs:
LPAZ 221600Z 01017KT 9999 SCT020 23/17 Q10...
LPFR 221600Z 25011KT CAVOK 23/17 Q1015=
LPHR 221600Z VRB05KT 9999 FEW023 23/15 Q10...
LPLA 221600Z /////KT 9999 SCT024 BKN025 21...
LPMA 221600Z 20021KT 9999 SCT015 24/20 Q10...
LPPD 221600Z 01013G23KT 330V060 9999 SCT02...
LPPR 221600Z 21007KT 9999 SCT025 SCT045 21...
LPPS 221600Z 17008KT 130V190 9999 SCT013 2...
LPPT 221600Z 23013KT 9999 FEW013 22/18 Q10...
Últimos QSOs:
2020/06/05-17:40 6m IK6DTB (GIUSEPPE)
2020/06/05-17:35 6m EA8OM (HEIJO)
2020/06/05-17:31 6m I0SNY (NICOLA)
2020/06/05-17:27 6m DF4WC (ANDREAS)
2020/06/05-17:13 6m DO3EF (PATRICK)
2020/06/05-17:09 6m DK7ZT (BERND)
  UTC
Rpi-6 CPU Temp: 454642.0 °C (251812Z)
IN51oq 1629Z /////KT //// 28/17 Q1014=
151610